createdAt,value
2018-02-08T00:00:10.825Z,1013.95
2018-02-08T00:01:10.981Z,1013.90
2018-02-08T00:02:10.809Z,1013.89
2018-02-08T00:03:10.465Z,1013.89
2018-02-08T00:04:10.464Z,1013.89
2018-02-08T00:05:10.350Z,1013.92
2018-02-08T00:06:10.340Z,1013.93
2018-02-08T00:07:11.262Z,1013.95
2018-02-08T00:08:10.330Z,1013.95
2018-02-08T00:09:10.333Z,1013.92
2018-02-08T00:10:10.301Z,1013.91
2018-02-08T00:11:10.310Z,1013.95
2018-02-08T00:12:10.289Z,1013.96
2018-02-08T00:13:10.278Z,1013.91
2018-02-08T00:14:10.355Z,1013.90
2018-02-08T00:15:10.332Z,1013.91
2018-02-08T00:16:10.332Z,1013.92
2018-02-08T00:17:10.265Z,1013.90
2018-02-08T00:18:10.276Z,1013.94
2018-02-08T00:19:10.309Z,1013.92
2018-02-08T00:20:10.271Z,1013.98
2018-02-08T00:21:10.302Z,1013.98
2018-02-08T00:22:10.296Z,1013.97
2018-02-08T00:23:10.246Z,1013.97
2018-02-08T00:24:10.239Z,1013.96
2018-02-08T00:25:10.258Z,1013.98
2018-02-08T00:26:10.287Z,1013.96
2018-02-08T00:27:10.293Z,1014.00
2018-02-08T00:28:10.250Z,1014.01
2018-02-08T00:29:10.261Z,1014.02
2018-02-08T00:30:10.226Z,1014.04
2018-02-08T00:31:10.247Z,1014.03
2018-02-08T00:32:10.245Z,1013.99
2018-02-08T00:33:10.193Z,1013.94
2018-02-08T00:34:10.184Z,1013.96
2018-02-08T00:35:10.184Z,1013.97
2018-02-08T00:36:10.197Z,1013.97
2018-02-08T00:37:10.196Z,1013.97
2018-02-08T00:38:10.200Z,1013.98
2018-02-08T00:39:10.212Z,1013.96
2018-02-08T00:40:10.157Z,1013.91
2018-02-08T00:41:10.207Z,1013.95
2018-02-08T00:42:10.219Z,1013.92
2018-02-08T00:43:10.165Z,1013.92
2018-02-08T00:44:10.141Z,1013.97
2018-02-08T00:45:10.167Z,1013.95
2018-02-08T00:46:10.170Z,1013.93
2018-02-08T00:47:10.136Z,1013.95
2018-02-08T00:48:10.127Z,1013.95
2018-02-08T00:49:10.171Z,1013.93
2018-02-08T00:50:10.121Z,1013.95
2018-02-08T00:51:10.107Z,1013.94
2018-02-08T00:52:10.167Z,1013.93
2018-02-08T00:53:10.134Z,1013.94
2018-02-08T00:54:10.166Z,1013.94
2018-02-08T00:55:10.170Z,1013.92
2018-02-08T00:56:10.106Z,1013.92
2018-02-08T00:57:10.151Z,1013.89
2018-02-08T00:58:10.122Z,1013.92
2018-02-08T00:59:10.137Z,1013.94
2018-02-08T01:00:10.097Z,1013.95
2018-02-08T01:01:10.977Z,1013.98
2018-02-08T01:02:10.058Z,1013.95
2018-02-08T01:03:10.066Z,1013.91
2018-02-08T01:04:10.060Z,1013.89
2018-02-08T01:05:10.071Z,1013.89
2018-02-08T01:06:10.095Z,1013.88
2018-02-08T01:07:10.039Z,1013.85
2018-02-08T01:08:10.055Z,1013.84
2018-02-08T01:09:10.029Z,1013.88
2018-02-08T01:10:10.034Z,1013.87
2018-02-08T01:11:10.094Z,1013.90
2018-02-08T01:12:10.070Z,1013.95
2018-02-08T01:13:10.039Z,1013.88
2018-02-08T01:14:10.478Z,1013.88
2018-02-08T01:15:10.067Z,1013.87
2018-02-08T01:16:10.049Z,1013.88
2018-02-08T01:17:10.008Z,1013.87
2018-02-08T01:18:10.010Z,1013.85
2018-02-08T01:19:10.039Z,1013.85
2018-02-08T01:20:09.999Z,1013.84
2018-02-08T01:21:09.976Z,1013.85
2018-02-08T01:22:09.997Z,1013.84
2018-02-08T01:23:09.994Z,1013.83
2018-02-08T01:24:10.021Z,1013.88
2018-02-08T01:25:10.006Z,1013.88
2018-02-08T01:26:09.992Z,1013.90
2018-02-08T01:27:09.978Z,1013.87
2018-02-08T01:28:10.012Z,1013.88
2018-02-08T01:29:09.940Z,1013.90
2018-02-08T01:30:09.953Z,1013.85
2018-02-08T01:31:09.999Z,1013.84
2018-02-08T01:32:09.958Z,1013.89
2018-02-08T01:33:09.977Z,1013.88
2018-02-08T01:34:09.916Z,1013.88
2018-02-08T01:35:10.005Z,1013.90
2018-02-08T01:36:09.916Z,1013.92
2018-02-08T01:37:09.909Z,1013.93
2018-02-08T01:38:09.951Z,1013.93
2018-02-08T01:39:09.910Z,1013.94
2018-02-08T01:40:09.891Z,1013.97
2018-02-08T01:41:09.913Z,1013.93
2018-02-08T01:42:09.895Z,1013.93
2018-02-08T01:43:09.887Z,1013.94
2018-02-08T01:44:09.918Z,1013.96
2018-02-08T01:45:09.861Z,1013.92
2018-02-08T01:46:09.905Z,1013.91
2018-02-08T01:47:09.885Z,1013.91
2018-02-08T01:48:10.485Z,1013.88
2018-02-08T01:49:09.866Z,1013.89
2018-02-08T01:50:09.880Z,1013.90
2018-02-08T01:51:09.871Z,1013.90
2018-02-08T01:52:09.880Z,1013.86
2018-02-08T01:53:09.864Z,1013.88
2018-02-08T01:54:09.825Z,1013.89
2018-02-08T01:55:09.897Z,1013.91
2018-02-08T01:56:09.816Z,1013.90
2018-02-08T01:57:09.811Z,1013.91
2018-02-08T01:58:09.805Z,1013.91
2018-02-08T01:59:09.852Z,1013.94
2018-02-08T02:00:09.823Z,1013.95
2018-02-08T02:01:09.925Z,1013.95
2018-02-08T02:02:09.785Z,1013.93
2018-02-08T02:03:09.796Z,1013.89
2018-02-08T02:04:09.777Z,1013.91
2018-02-08T02:05:09.774Z,1013.92
2018-02-08T02:06:09.811Z,1013.89
2018-02-08T02:07:09.814Z,1013.93
2018-02-08T02:08:09.853Z,1013.91
2018-02-08T02:09:09.778Z,1013.94
2018-02-08T02:10:09.752Z,1013.95
2018-02-08T02:11:09.755Z,1013.93
2018-02-08T02:12:09.789Z,1013.92
2018-02-08T02:13:09.764Z,1013.92
2018-02-08T02:14:09.732Z,1013.92
2018-02-08T02:15:09.715Z,1013.88
2018-02-08T02:16:09.720Z,1013.85
2018-02-08T02:17:09.720Z,1013.82
2018-02-08T02:18:09.781Z,1013.78
2018-02-08T02:19:09.722Z,1013.84
2018-02-08T02:20:09.739Z,1013.79
2018-02-08T02:21:09.700Z,1013.86
2018-02-08T02:22:09.714Z,1013.86
2018-02-08T02:23:09.691Z,1013.87
2018-02-08T02:24:09.759Z,1013.85
2018-02-08T02:25:09.723Z,1013.85
2018-02-08T02:26:09.678Z,1013.80
2018-02-08T02:27:09.690Z,1013.80
2018-02-08T02:28:09.687Z,1013.82
2018-02-08T02:29:09.663Z,1013.76
2018-02-08T02:30:09.712Z,1013.78
2018-02-08T02:31:09.712Z,1013.79
2018-02-08T02:32:09.642Z,1013.83
2018-02-08T02:33:09.693Z,1013.87
2018-02-08T02:34:09.680Z,1013.88
2018-02-08T02:35:09.654Z,1013.88
2018-02-08T02:36:09.675Z,1013.89
2018-02-08T02:37:09.638Z,1013.90
2018-02-08T02:38:09.627Z,1013.91
2018-02-08T02:39:09.616Z,1013.93
2018-02-08T02:40:09.598Z,1013.96
2018-02-08T02:41:09.616Z,1013.94
2018-02-08T02:42:09.659Z,1013.95
2018-02-08T02:43:09.610Z,1013.96
2018-02-08T02:44:09.657Z,1013.94
2018-02-08T02:45:09.643Z,1013.95
2018-02-08T02:46:09.576Z,1013.93
2018-02-08T02:47:09.636Z,1013.90
2018-02-08T02:48:09.570Z,1013.87
2018-02-08T02:49:09.561Z,1013.89
2018-02-08T02:50:09.575Z,1013.91
2018-02-08T02:51:09.577Z,1013.91
2018-02-08T02:52:09.559Z,1013.93
2018-02-08T02:53:09.549Z,1013.89
2018-02-08T02:54:09.574Z,1013.87
2018-02-08T02:55:09.562Z,1013.90
2018-02-08T02:56:09.595Z,1013.92
2018-02-08T02:57:09.541Z,1013.90
2018-02-08T02:58:09.557Z,1013.93
2018-02-08T02:59:09.562Z,1013.90
2018-02-08T03:00:09.561Z,1013.92
2018-02-08T03:01:09.554Z,1013.91
2018-02-08T03:02:09.517Z,1013.90
2018-02-08T03:03:09.507Z,1013.85
2018-02-08T03:04:09.551Z,1013.89
2018-02-08T03:05:09.494Z,1013.91
2018-02-08T03:06:09.506Z,1013.93
2018-02-08T03:07:09.499Z,1013.92
2018-02-08T03:08:09.488Z,1013.97
2018-02-08T03:09:09.474Z,1013.94
2018-02-08T03:10:09.492Z,1013.96
2018-02-08T03:11:09.513Z,1013.95
2018-02-08T03:12:09.488Z,1013.94
2018-02-08T03:13:09.488Z,1013.93
2018-02-08T03:14:09.445Z,1013.93
2018-02-08T03:15:09.472Z,1013.91
2018-02-08T03:16:09.440Z,1013.91
2018-02-08T03:17:09.504Z,1013.89
2018-02-08T03:18:09.425Z,1013.90
2018-02-08T03:19:09.458Z,1013.89
2018-02-08T03:20:09.413Z,1013.91
2018-02-08T03:21:09.426Z,1013.90
2018-02-08T03:22:09.991Z,1013.90
2018-02-08T03:23:09.422Z,1013.92
2018-02-08T03:24:09.445Z,1013.90
2018-02-08T03:25:09.403Z,1013.89
2018-02-08T03:26:09.427Z,1013.88
2018-02-08T03:27:09.381Z,1013.91
2018-02-08T03:28:09.400Z,1013.89
2018-02-08T03:29:09.396Z,1013.91
2018-02-08T03:30:09.409Z,1013.92
2018-02-08T03:31:09.440Z,1013.95
2018-02-08T03:32:09.376Z,1013.92
2018-02-08T03:33:09.408Z,1013.97
2018-02-08T03:34:09.369Z,1013.95
2018-02-08T03:35:09.375Z,1013.91
2018-02-08T03:36:09.343Z,1013.96
2018-02-08T03:37:09.346Z,1013.94
2018-02-08T03:38:09.354Z,1013.93
2018-02-08T03:39:09.384Z,1013.92
2018-02-08T03:40:09.312Z,1013.92
2018-02-08T03:41:09.315Z,1013.93
2018-02-08T03:42:09.333Z,1013.91
2018-02-08T03:43:09.355Z,1013.94
2018-02-08T03:44:09.316Z,1013.94
2018-02-08T03:45:09.300Z,1013.99
2018-02-08T03:46:09.334Z,1014.04
2018-02-08T03:47:09.281Z,1014.04
2018-02-08T03:48:09.294Z,1014.05
2018-02-08T03:49:09.316Z,1014.03
2018-02-08T03:50:09.275Z,1014.04
2018-02-08T03:51:09.292Z,1014.05
2018-02-08T03:52:09.301Z,1014.04
2018-02-08T03:53:09.273Z,1014.07
2018-02-08T03:54:09.260Z,1014.08
2018-02-08T03:55:09.244Z,1014.07
2018-02-08T03:56:09.269Z,1014.07
2018-02-08T03:57:09.301Z,1014.09
2018-02-08T03:58:09.239Z,1014.07
2018-02-08T03:59:09.257Z,1014.11
2018-02-08T04:00:09.241Z,1014.08
2018-02-08T04:01:09.259Z,1014.07
2018-02-08T04:02:09.227Z,1014.06
2018-02-08T04:03:09.249Z,1014.10
2018-02-08T04:04:09.262Z,1014.09
2018-02-08T04:05:09.222Z,1014.11
2018-02-08T04:06:09.189Z,1014.10
2018-02-08T04:07:09.230Z,1014.09
2018-02-08T04:08:09.206Z,1014.11
2018-02-08T04:09:09.215Z,1014.06
2018-02-08T04:10:09.198Z,1014.08
2018-02-08T04:11:09.163Z,1014.08
2018-02-08T04:12:09.296Z,1014.08
2018-02-08T04:13:09.187Z,1014.05
2018-02-08T04:14:09.223Z,1014.01
2018-02-08T04:15:09.247Z,1013.99
2018-02-08T04:16:09.145Z,1014.05
2018-02-08T04:17:09.139Z,1014.00
2018-02-08T04:18:09.169Z,1013.99
2018-02-08T04:19:09.138Z,1014.06
2018-02-08T04:20:09.119Z,1014.05
2018-02-08T04:21:09.112Z,1014.05
2018-02-08T04:22:09.152Z,1014.06
2018-02-08T04:23:09.137Z,1014.08
2018-02-08T04:24:09.164Z,1014.07
2018-02-08T04:25:09.161Z,1014.07
2018-02-08T04:26:09.097Z,1014.08
2018-02-08T04:27:09.117Z,1014.08
2018-02-08T04:28:09.096Z,1014.08
2018-02-08T04:29:09.087Z,1014.09
2018-02-08T04:30:09.144Z,1014.09
2018-02-08T04:31:09.097Z,1014.13
2018-02-08T04:32:09.059Z,1014.15
2018-02-08T04:33:09.123Z,1014.13
2018-02-08T04:34:09.093Z,1014.11
2018-02-08T04:35:09.056Z,1014.15
2018-02-08T04:36:09.037Z,1014.16
2018-02-08T04:37:09.108Z,1014.21
2018-02-08T04:38:09.074Z,1014.18
2018-02-08T04:39:09.066Z,1014.16
2018-02-08T04:40:09.055Z,1014.15
2018-02-08T04:41:09.985Z,1014.16
2018-02-08T04:42:09.026Z,1014.14
2018-02-08T04:43:09.067Z,1014.12
2018-02-08T04:44:09.042Z,1014.14
2018-02-08T04:45:09.026Z,1014.14
2018-02-08T04:46:08.997Z,1014.12
2018-02-08T04:47:09.059Z,1014.13
2018-02-08T04:48:08.985Z,1014.07
2018-02-08T04:49:09.047Z,1014.06
2018-02-08T04:50:08.976Z,1014.07
2018-02-08T04:51:09.009Z,1014.04
2018-02-08T04:52:08.973Z,1014.05
2018-02-08T04:53:08.984Z,1014.04
2018-02-08T04:54:08.972Z,1014.03
2018-02-08T04:55:09.000Z,1014.01
2018-02-08T04:56:08.965Z,1014.01
2018-02-08T04:57:08.944Z,1014.05
2018-02-08T04:58:08.956Z,1014.04
2018-02-08T04:59:08.979Z,1014.07
2018-02-08T05:00:08.970Z,1014.05
2018-02-08T05:01:08.917Z,1014.06
2018-02-08T05:02:08.955Z,1014.09
2018-02-08T05:03:08.906Z,1014.07
2018-02-08T05:04:08.913Z,1014.10
2018-02-08T05:05:08.982Z,1014.06
2018-02-08T05:06:08.973Z,1014.03
2018-02-08T05:07:08.913Z,1014.01
2018-02-08T05:08:08.905Z,1014.03
2018-02-08T05:09:08.887Z,1014.00
2018-02-08T05:10:08.896Z,1014.01
2018-02-08T05:11:08.909Z,1014.05
2018-02-08T05:12:08.883Z,1014.05
2018-02-08T05:13:08.885Z,1014.05
2018-02-08T05:14:08.908Z,1014.09
2018-02-08T05:15:08.989Z,1014.08
2018-02-08T05:16:08.874Z,1014.06
2018-02-08T05:17:08.885Z,1014.05
2018-02-08T05:18:08.844Z,1014.06
2018-02-08T05:19:08.893Z,1014.06
2018-02-08T05:20:08.859Z,1014.13
2018-02-08T05:21:08.813Z,1014.13
2018-02-08T05:22:08.828Z,1014.15
2018-02-08T05:23:08.842Z,1014.17
2018-02-08T05:24:08.832Z,1014.11
2018-02-08T05:25:08.818Z,1014.12
2018-02-08T05:26:08.878Z,1014.12
2018-02-08T05:27:08.838Z,1014.14
2018-02-08T05:28:09.489Z,1014.14
2018-02-08T05:29:08.853Z,1014.11
2018-02-08T05:30:08.791Z,1014.14
2018-02-08T05:31:08.769Z,1014.15
2018-02-08T05:32:08.766Z,1014.16
2018-02-08T05:33:08.835Z,1014.19
2018-02-08T05:34:08.834Z,1014.14
2018-02-08T05:35:08.748Z,1014.15
2018-02-08T05:36:08.802Z,1014.19
2018-02-08T05:37:08.799Z,1014.25
2018-02-08T05:38:08.738Z,1014.26
2018-02-08T05:39:08.783Z,1014.25
2018-02-08T05:40:08.787Z,1014.25
2018-02-08T05:41:08.797Z,1014.21
2018-02-08T05:42:08.765Z,1014.24
2018-02-08T05:43:08.710Z,1014.26
2018-02-08T05:44:08.764Z,1014.22
2018-02-08T05:45:08.701Z,1014.22
2018-02-08T05:46:08.700Z,1014.19
2018-02-08T05:47:08.681Z,1014.22
2018-02-08T05:48:08.723Z,1014.22
2018-02-08T05:49:08.725Z,1014.23
2018-02-08T05:50:08.679Z,1014.21
2018-02-08T05:51:08.670Z,1014.22
2018-02-08T05:52:08.698Z,1014.25
2018-02-08T05:53:08.714Z,1014.26
2018-02-08T05:54:08.660Z,1014.26
2018-02-08T05:55:08.693Z,1014.28
2018-02-08T05:56:08.662Z,1014.33
2018-02-08T05:57:08.661Z,1014.30
2018-02-08T05:58:08.652Z,1014.31
2018-02-08T05:59:08.621Z,1014.30
2018-02-08T06:00:08.657Z,1014.30
2018-02-08T06:01:08.621Z,1014.30
2018-02-08T06:02:08.800Z,1014.32
2018-02-08T06:03:08.632Z,1014.34
2018-02-08T06:04:08.644Z,1014.34
2018-02-08T06:05:08.643Z,1014.34
2018-02-08T06:06:08.620Z,1014.34
2018-02-08T06:07:08.626Z,1014.34
2018-02-08T06:08:08.603Z,1014.32
2018-02-08T06:09:08.626Z,1014.32
2018-02-08T06:10:08.664Z,1014.36
2018-02-08T06:11:08.566Z,1014.36
2018-02-08T06:12:08.602Z,1014.39
2018-02-08T06:13:08.574Z,1014.40
2018-02-08T06:14:08.573Z,1014.36
2018-02-08T06:15:08.545Z,1014.38
2018-02-08T06:16:08.541Z,1014.35
2018-02-08T06:17:08.585Z,1014.38
2018-02-08T06:18:08.583Z,1014.38
2018-02-08T06:19:08.518Z,1014.38
2018-02-08T06:20:08.549Z,1014.37
2018-02-08T06:21:08.530Z,1014.42
2018-02-08T06:22:08.564Z,1014.41
2018-02-08T06:23:08.534Z,1014.43
2018-02-08T06:24:09.941Z,1014.43
2018-02-08T06:25:08.509Z,1014.46
2018-02-08T06:26:08.480Z,1014.45
2018-02-08T06:27:08.537Z,1014.45
2018-02-08T06:28:08.475Z,1014.46
2018-02-08T06:29:08.520Z,1014.46
2018-02-08T06:30:08.500Z,1014.44
2018-02-08T06:31:09.485Z,1014.45
2018-02-08T06:32:08.532Z,1014.45
2018-02-08T06:33:08.524Z,1014.42
2018-02-08T06:34:08.463Z,1014.42
2018-02-08T06:35:08.484Z,1014.46
2018-02-08T06:36:08.471Z,1014.47
2018-02-08T06:37:08.442Z,1014.51
2018-02-08T06:38:08.466Z,1014.48
2018-02-08T06:39:08.436Z,1014.49
2018-02-08T06:40:08.453Z,1014.56
2018-02-08T06:41:08.437Z,1014.53
2018-02-08T06:42:08.467Z,1014.48
2018-02-08T06:43:08.398Z,1014.51
2018-02-08T06:44:08.391Z,1014.45
2018-02-08T06:45:08.402Z,1014.49
2018-02-08T06:46:08.407Z,1014.52
2018-02-08T06:47:08.412Z,1014.54
2018-02-08T06:48:08.389Z,1014.51
2018-02-08T06:49:08.408Z,1014.53
2018-02-08T06:50:08.393Z,1014.55
2018-02-08T06:51:08.366Z,1014.59
2018-02-08T06:52:08.436Z,1014.64
2018-02-08T06:53:08.352Z,1014.62
2018-02-08T06:54:08.363Z,1014.65
2018-02-08T06:55:08.381Z,1014.67
2018-02-08T06:56:08.344Z,1014.65
2018-02-08T06:57:08.340Z,1014.65
2018-02-08T06:58:08.348Z,1014.67
2018-02-08T06:59:08.356Z,1014.70
2018-02-08T07:00:08.309Z,1014.68
2018-02-08T07:01:08.368Z,1014.70
2018-02-08T07:02:08.308Z,1014.72
2018-02-08T07:03:08.289Z,1014.72
2018-02-08T07:04:08.299Z,1014.76
2018-02-08T07:05:08.368Z,1014.76
2018-02-08T07:06:09.702Z,1014.73
2018-02-08T07:07:08.343Z,1014.77
2018-02-08T07:08:08.313Z,1014.76
2018-02-08T07:09:08.437Z,1014.75
2018-02-08T07:10:08.264Z,1014.75
2018-02-08T07:11:08.259Z,1014.82
2018-02-08T07:12:08.302Z,1014.81
2018-02-08T07:13:08.288Z,1014.80
2018-02-08T07:14:08.256Z,1014.80
2018-02-08T07:15:08.270Z,1014.87
2018-02-08T07:16:08.272Z,1014.89
2018-02-08T07:17:09.263Z,1014.94
2018-02-08T07:18:08.516Z,1014.97
2018-02-08T07:19:08.317Z,1014.98
2018-02-08T07:20:08.200Z,1014.99
2018-02-08T07:21:08.250Z,1014.99
2018-02-08T07:22:08.301Z,1015.02
2018-02-08T07:23:08.213Z,1015.02
2018-02-08T07:24:08.215Z,1015.07
2018-02-08T07:25:08.249Z,1015.08
2018-02-08T07:26:08.196Z,1015.10
2018-02-08T07:27:08.232Z,1015.09
2018-02-08T07:28:08.173Z,1015.12
2018-02-08T07:29:08.205Z,1015.15
2018-02-08T07:30:08.230Z,1015.18
2018-02-08T07:31:08.239Z,1015.21
2018-02-08T07:32:08.177Z,1015.24
2018-02-08T07:33:08.192Z,1015.23
2018-02-08T07:34:08.138Z,1015.22
2018-02-08T07:35:08.128Z,1015.24
2018-02-08T07:36:08.128Z,1015.21
2018-02-08T07:37:08.119Z,1015.22
2018-02-08T07:38:08.116Z,1015.22
2018-02-08T07:39:08.221Z,1015.24
2018-02-08T07:40:08.163Z,1015.27
2018-02-08T07:41:08.144Z,1015.28
2018-02-08T07:42:08.089Z,1015.26
2018-02-08T07:43:09.080Z,1015.29
2018-02-08T07:44:08.084Z,1015.29
2018-02-08T07:45:08.086Z,1015.31
2018-02-08T07:46:08.134Z,1015.34
2018-02-08T07:47:08.119Z,1015.37
2018-02-08T07:48:08.104Z,1015.37
2018-02-08T07:49:08.998Z,1015.37
2018-02-08T07:50:08.066Z,1015.36
2018-02-08T07:51:08.063Z,1015.39
2018-02-08T07:52:08.113Z,1015.43
2018-02-08T07:53:08.152Z,1015.42
2018-02-08T07:54:08.054Z,1015.48
2018-02-08T07:55:08.071Z,1015.53
2018-02-08T07:56:08.062Z,1015.53
2018-02-08T07:57:08.079Z,1015.53
2018-02-08T07:58:08.076Z,1015.53
2018-02-08T07:59:08.086Z,1015.55
2018-02-08T08:00:08.063Z,1015.53
2018-02-08T08:01:08.077Z,1015.54
2018-02-08T08:02:08.091Z,1015.57
2018-02-08T08:03:08.494Z,1015.59
2018-02-08T08:04:08.001Z,1015.63
2018-02-08T08:05:08.011Z,1015.67
2018-02-08T08:06:08.022Z,1015.65
2018-02-08T08:07:08.053Z,1015.67
2018-02-08T08:08:07.993Z,1015.65
2018-02-08T08:09:07.985Z,1015.66
2018-02-08T08:10:08.038Z,1015.67
2018-02-08T08:11:07.970Z,1015.74
2018-02-08T08:12:08.051Z,1015.74
2018-02-08T08:13:08.030Z,1015.78
2018-02-08T08:14:08.082Z,1015.80
2018-02-08T08:15:07.977Z,1015.81
2018-02-08T08:16:08.070Z,1015.84
2018-02-08T08:17:08.106Z,1015.87
2018-02-08T08:18:08.270Z,1015.93
2018-02-08T08:19:08.112Z,1015.98
2018-02-08T08:20:08.195Z,1015.98
2018-02-08T08:21:16.284Z,1016.00
2018-02-08T08:22:08.041Z,1016.05
2018-02-08T08:23:08.004Z,1016.08
2018-02-08T08:24:08.057Z,1016.07
2018-02-08T08:25:08.022Z,1016.10
2018-02-08T08:26:08.077Z,1016.04
2018-02-08T08:27:08.284Z,1016.06
2018-02-08T08:28:09.378Z,1016.04
2018-02-08T08:29:08.184Z,1016.07
2018-02-08T08:31:09.850Z,1016.12
2018-02-08T08:32:08.312Z,1016.15
2018-02-08T08:33:08.348Z,1016.18
2018-02-08T08:34:07.990Z,1016.19
2018-02-08T08:35:08.098Z,1016.22
2018-02-08T08:36:09.123Z,1016.28
2018-02-08T08:37:08.082Z,1016.22
2018-02-08T08:38:08.169Z,1016.24
2018-02-08T08:39:16.061Z,1016.29
2018-02-08T08:40:09.460Z,1016.18
2018-02-08T08:41:16.768Z,1016.16
2018-02-08T08:42:13.485Z,1016.12
2018-02-08T08:43:18.900Z,1016.10
2018-02-08T08:44:15.829Z,1016.10
2018-02-08T08:45:11.398Z,1016.08
2018-02-08T08:46:09.835Z,1016.08
2018-02-08T08:47:07.977Z,1016.11
2018-02-08T08:48:08.015Z,1016.10
2018-02-08T08:49:09.411Z,1016.05
2018-02-08T08:50:08.443Z,1016.00
2018-02-08T08:51:07.936Z,1016.06
2018-02-08T08:52:07.956Z,1016.08
2018-02-08T08:53:07.985Z,1016.09
2018-02-08T08:54:07.924Z,1016.07
2018-02-08T08:55:07.933Z,1016.03
2018-02-08T08:56:08.071Z,1016.05
2018-02-08T08:57:07.979Z,1016.05
2018-02-08T08:58:08.200Z,1016.05
2018-02-08T08:59:08.243Z,1016.01
2018-02-08T09:00:08.053Z,1016.06
2018-02-08T09:01:07.953Z,1016.08
2018-02-08T09:02:08.277Z,1016.08
2018-02-08T09:03:08.742Z,1016.09
2018-02-08T09:04:09.020Z,1016.08
2018-02-08T09:05:08.635Z,1016.06
2018-02-08T09:06:12.028Z,1016.07
2018-02-08T09:07:08.213Z,1016.10
2018-02-08T09:08:08.864Z,1016.04
2018-02-08T09:09:09.235Z,1016.04
2018-02-08T09:10:08.463Z,1016.09
2018-02-08T09:11:09.072Z,1016.13
2018-02-08T09:12:08.186Z,1016.14
2018-02-08T09:13:08.022Z,1016.18
2018-02-08T09:14:08.014Z,1016.26
2018-02-08T09:15:08.006Z,1016.31
2018-02-08T09:16:07.947Z,1016.17
2018-02-08T09:17:07.980Z,1016.25
2018-02-08T09:18:07.930Z,1016.23
2018-02-08T09:19:08.015Z,1016.14
2018-02-08T09:20:07.963Z,1016.16
2018-02-08T09:21:07.996Z,1016.18
2018-02-08T09:22:07.915Z,1016.22
2018-02-08T09:23:08.009Z,1016.19
2018-02-08T09:24:07.952Z,1016.13
2018-02-08T09:25:08.132Z,1016.11
2018-02-08T09:26:07.936Z,1016.12
2018-02-08T09:27:07.932Z,1016.13
2018-02-08T09:28:07.928Z,1016.11
2018-02-08T09:29:07.960Z,1016.09
2018-02-08T09:30:08.774Z,1016.10
2018-02-08T09:31:07.951Z,1016.08
2018-02-08T09:32:07.920Z,1016.08
2018-02-08T09:33:07.891Z,1016.10
2018-02-08T09:34:07.955Z,1016.15
2018-02-08T09:35:08.510Z,1016.19
2018-02-08T09:36:07.898Z,1016.24
2018-02-08T09:37:07.884Z,1016.25
2018-02-08T09:38:07.932Z,1016.34
2018-02-08T09:39:07.891Z,1016.32
2018-02-08T09:40:07.918Z,1016.28
2018-02-08T09:41:07.902Z,1016.23
2018-02-08T09:42:07.918Z,1016.09
2018-02-08T09:43:07.965Z,1016.07
2018-02-08T09:44:07.917Z,1016.10
2018-02-08T09:45:07.875Z,1016.08
2018-02-08T09:46:07.941Z,1016.20
2018-02-08T09:47:07.890Z,1016.27
2018-02-08T09:48:08.604Z,1016.30
2018-02-08T09:49:07.903Z,1016.31
2018-02-08T09:50:07.889Z,1016.36
2018-02-08T09:51:07.936Z,1016.30
2018-02-08T09:52:07.898Z,1016.30
2018-02-08T09:53:07.912Z,1016.30
2018-02-08T09:54:07.887Z,1016.26
2018-02-08T09:55:07.901Z,1016.30
2018-02-08T09:56:07.934Z,1016.30
2018-02-08T09:57:08.052Z,1016.36
2018-02-08T09:58:08.144Z,1016.35
2018-02-08T09:59:07.915Z,1016.35
2018-02-08T10:00:07.890Z,1016.35
2018-02-08T10:01:07.941Z,1016.35
2018-02-08T10:02:08.597Z,1016.37
2018-02-08T10:03:07.948Z,1016.32
2018-02-08T10:04:07.916Z,1016.34
2018-02-08T10:05:07.931Z,1016.30
2018-02-08T10:06:08.080Z,1016.24
2018-02-08T10:07:07.917Z,1016.16
2018-02-08T10:08:07.917Z,1016.18
2018-02-08T10:09:08.003Z,1016.16
2018-02-08T10:10:07.953Z,1016.13
2018-02-08T10:11:08.024Z,1016.07
2018-02-08T10:12:07.986Z,1016.04
2018-02-08T10:13:07.962Z,1016.10
2018-02-08T10:14:07.935Z,1016.03
2018-02-08T10:15:07.941Z,1016.04
2018-02-08T10:16:07.992Z,1016.01
2018-02-08T10:17:07.942Z,1015.99
2018-02-08T10:18:07.991Z,1016.01
2018-02-08T10:19:08.014Z,1016.00
2018-02-08T10:20:08.121Z,1016.02
2018-02-08T10:21:07.996Z,1016.03
2018-02-08T10:22:07.954Z,1016.04
2018-02-08T10:23:07.958Z,1016.08
2018-02-08T10:24:08.064Z,1016.10
2018-02-08T10:25:07.990Z,1016.18
2018-02-08T10:26:07.957Z,1016.27
2018-02-08T10:27:07.943Z,1016.26
2018-02-08T10:28:07.972Z,1016.16
2018-02-08T10:29:08.525Z,1016.15
2018-02-08T10:30:07.976Z,1016.17
2018-02-08T10:31:08.003Z,1016.26
2018-02-08T10:32:07.951Z,1016.28
2018-02-08T10:33:08.000Z,1016.32
2018-02-08T10:34:08.003Z,1016.29
2018-02-08T10:35:07.999Z,1016.30
2018-02-08T10:36:08.031Z,1016.24
2018-02-08T10:37:08.535Z,1016.27
2018-02-08T10:38:07.968Z,1016.22
2018-02-08T10:39:08.025Z,1016.22
2018-02-08T10:40:08.027Z,1016.26
2018-02-08T10:41:08.538Z,1016.31
2018-02-08T10:42:07.966Z,1016.31
2018-02-08T10:43:08.044Z,1016.35
2018-02-08T10:44:07.970Z,1016.41
2018-02-08T10:45:08.002Z,1016.53
2018-02-08T10:46:08.005Z,1016.58
2018-02-08T10:47:08.532Z,1016.69
2018-02-08T10:48:08.017Z,1016.72
2018-02-08T10:49:07.985Z,1016.73
2018-02-08T10:50:08.087Z,1016.77
2018-02-08T10:51:07.982Z,1016.77
2018-02-08T10:52:08.006Z,1016.79
2018-02-08T10:53:08.305Z,1016.87
2018-02-08T10:54:08.050Z,1016.93
2018-02-08T10:55:08.000Z,1016.98
2018-02-08T10:56:08.027Z,1017.01
2018-02-08T10:57:08.055Z,1017.00
2018-02-08T10:58:08.042Z,1016.97
2018-02-08T10:59:08.093Z,1017.07
2018-02-08T11:00:08.186Z,1017.08
2018-02-08T11:01:08.060Z,1017.15
2018-02-08T11:02:08.041Z,1017.14
2018-02-08T11:03:08.061Z,1017.17
2018-02-08T11:04:08.064Z,1017.12
2018-02-08T11:05:08.039Z,1017.15
2018-02-08T11:06:08.094Z,1017.09
2018-02-08T11:07:08.137Z,1017.07
2018-02-08T11:08:08.130Z,1017.04
2018-02-08T11:09:08.114Z,1017.03
2018-02-08T11:10:08.107Z,1017.06
2018-02-08T11:11:09.542Z,1017.05
2018-02-08T11:12:14.734Z,1017.08
2018-02-08T11:13:10.302Z,1017.09
2018-02-08T11:14:09.744Z,1017.06
2018-02-08T11:15:09.216Z,1017.04
2018-02-08T11:16:26.957Z,1017.04
2018-02-08T11:17:09.420Z,1017.05
2018-02-08T11:18:09.312Z,1017.03
2018-02-08T11:19:08.611Z,1017.03
2018-02-08T11:20:12.887Z,1016.96
2018-02-08T11:21:08.106Z,1017.03
2018-02-08T11:22:08.156Z,1017.04
2018-02-08T11:23:08.155Z,1017.01
2018-02-08T11:24:08.232Z,1016.97
2018-02-08T11:25:08.121Z,1016.99
2018-02-08T11:26:08.130Z,1016.99
2018-02-08T11:27:08.204Z,1017.01
2018-02-08T11:28:08.230Z,1017.05
2018-02-08T11:29:08.397Z,1016.99
2018-02-08T11:30:08.135Z,1016.96
2018-02-08T11:31:08.190Z,1016.88
2018-02-08T11:32:08.156Z,1016.85
2018-02-08T11:33:08.209Z,1016.84
2018-02-08T11:34:08.222Z,1016.85
2018-02-08T11:35:08.284Z,1016.84
2018-02-08T11:36:08.203Z,1016.89
2018-02-08T11:37:08.234Z,1016.92
2018-02-08T11:38:08.213Z,1016.90
2018-02-08T11:39:08.195Z,1016.99
2018-02-08T11:40:08.195Z,1017.01
2018-02-08T11:41:08.243Z,1017.01
2018-02-08T11:42:08.222Z,1017.00
2018-02-08T11:43:08.285Z,1016.92
2018-02-08T11:44:08.256Z,1016.86
2018-02-08T11:45:08.264Z,1016.63
2018-02-08T11:46:08.259Z,1016.52
2018-02-08T11:47:08.269Z,1016.46
2018-02-08T11:48:08.260Z,1016.41
2018-02-08T11:49:08.268Z,1016.39
2018-02-08T11:50:08.275Z,1016.38
2018-02-08T11:51:08.327Z,1016.30
2018-02-08T11:52:08.292Z,1016.24
2018-02-08T11:53:08.261Z,1016.26
2018-02-08T11:54:08.301Z,1016.19
2018-02-08T11:55:08.318Z,1016.20
2018-02-08T11:56:08.354Z,1016.13
2018-02-08T11:57:08.365Z,1016.15
2018-02-08T11:58:08.309Z,1016.10
2018-02-08T11:59:08.444Z,1016.06
2018-02-08T12:00:08.317Z,1016.03
2018-02-08T12:01:08.344Z,1016.01
2018-02-08T12:02:08.362Z,1016.04
2018-02-08T12:03:08.344Z,1016.00
2018-02-08T12:04:08.413Z,1016.00
2018-02-08T12:05:08.356Z,1015.97
2018-02-08T12:06:08.364Z,1015.92